createdAt,value
2022-10-26T00:01:16.106Z,101184.13
2022-10-26T00:03:46.934Z,101179.38
2022-10-26T00:06:21.606Z,101181.56
2022-10-26T00:08:49.438Z,101183.88
2022-10-26T00:11:17.913Z,101183.03
2022-10-26T00:13:46.617Z,101186.03
2022-10-26T00:16:17.073Z,101180.13
2022-10-26T00:18:44.991Z,101185.50
2022-10-26T00:21:12.465Z,101178.81
2022-10-26T00:23:39.794Z,101190.59
2022-10-26T00:26:08.055Z,101179.53
2022-10-26T00:28:35.218Z,101187.25
2022-10-26T00:31:12.022Z,101191.63
2022-10-26T00:33:39.152Z,101193.38
2022-10-26T00:36:09.278Z,101200.94
2022-10-26T00:38:37.343Z,101199.41
2022-10-26T00:41:05.268Z,101203.19
2022-10-26T00:43:32.041Z,101206.63
2022-10-26T00:46:01.739Z,101202.56
2022-10-26T00:48:35.684Z,101203.63
2022-10-26T00:51:32.792Z,101206.66
2022-10-26T00:54:11.312Z,101209.16
2022-10-26T00:56:38.411Z,101212.94
2022-10-26T00:59:11.263Z,101212.25
2022-10-26T01:01:43.277Z,101208.56
2022-10-26T01:04:12.221Z,101208.19
2022-10-26T01:06:41.182Z,101207.28
2022-10-26T01:09:09.130Z,101210.69
2022-10-26T01:11:36.114Z,101205.19
2022-10-26T01:14:09.437Z,101201.25
2022-10-26T01:16:57.107Z,101203.38
2022-10-26T01:19:23.921Z,101194.66
2022-10-26T01:22:25.969Z,101198.63
2022-10-26T01:25:27.524Z,101199.47
2022-10-26T01:27:54.734Z,101197.75
2022-10-26T01:30:45.893Z,101187.97
2022-10-26T01:33:31.180Z,101188.53
2022-10-26T01:36:06.852Z,101187.22
2022-10-26T01:39:00.404Z,101189.72
2022-10-26T01:41:35.348Z,101194.06
2022-10-26T01:44:25.589Z,101188.34
2022-10-26T01:46:55.737Z,101187.78
2022-10-26T01:49:35.448Z,101187.41
2022-10-26T01:52:02.425Z,101185.03
2022-10-26T01:54:29.508Z,101177.94
2022-10-26T01:57:02.625Z,101174.28
2022-10-26T02:00:07.750Z,101172.38
2022-10-26T02:03:12.297Z,101165.84
2022-10-26T02:06:19.190Z,101169.00
2022-10-26T02:09:13.772Z,101165.84
2022-10-26T02:11:46.957Z,101168.22
2022-10-26T02:14:34.827Z,101156.94
2022-10-26T02:17:19.213Z,101165.03
2022-10-26T02:20:05.493Z,101163.50
2022-10-26T02:22:39.684Z,101166.00
2022-10-26T02:25:15.957Z,101168.69
2022-10-26T02:27:50.985Z,101153.66
2022-10-26T02:30:18.721Z,101158.34
2022-10-26T02:32:55.125Z,101156.19
2022-10-26T02:35:30.039Z,101167.94
2022-10-26T02:38:04.757Z,101161.28
2022-10-26T02:40:34.351Z,101165.28
2022-10-26T02:43:10.760Z,101168.25
2022-10-26T02:45:47.938Z,101167.50
2022-10-26T02:48:16.264Z,101162.91
2022-10-26T02:51:14.215Z,101156.97
2022-10-26T02:54:08.638Z,101159.38
2022-10-26T02:56:54.270Z,101165.63
2022-10-26T02:59:23.951Z,101167.00
2022-10-26T03:01:53.146Z,101166.47
2022-10-26T03:04:20.369Z,101170.16
2022-10-26T03:06:54.992Z,101170.41
2022-10-26T03:09:24.765Z,101172.09
2022-10-26T03:11:53.177Z,101167.22
2022-10-26T03:14:20.690Z,101173.44
2022-10-26T03:16:47.718Z,101173.84
2022-10-26T03:19:14.778Z,101176.75
2022-10-26T03:21:42.303Z,101176.75
2022-10-26T03:24:10.237Z,101181.22
2022-10-26T03:26:37.348Z,101169.53
2022-10-26T03:29:04.836Z,101175.41
2022-10-26T03:31:31.787Z,101177.44
2022-10-26T03:33:58.814Z,101174.97
2022-10-26T03:36:25.784Z,101177.94
2022-10-26T03:38:52.736Z,101172.47
2022-10-26T03:41:19.688Z,101172.81
2022-10-26T03:43:48.474Z,101173.59
2022-10-26T03:46:15.429Z,101172.47
2022-10-26T03:48:42.413Z,101180.78
2022-10-26T03:51:09.346Z,101185.81
2022-10-26T03:53:36.298Z,101183.47
2022-10-26T03:56:03.498Z,101173.22
2022-10-26T03:58:30.581Z,101174.97
2022-10-26T04:00:57.655Z,101175.03
2022-10-26T04:03:24.652Z,101182.47
2022-10-26T04:05:51.641Z,101179.72
2022-10-26T04:08:18.894Z,101184.22
2022-10-26T04:10:47.399Z,101179.38
2022-10-26T04:13:14.376Z,101180.41
2022-10-26T04:15:41.339Z,101184.97
2022-10-26T04:18:12.950Z,101181.13
2022-10-26T04:20:42.154Z,101177.03
2022-10-26T04:23:14.488Z,101176.25
2022-10-26T04:25:42.781Z,101180.41
2022-10-26T04:28:12.462Z,101182.94
2022-10-26T04:30:39.989Z,101177.88
2022-10-26T04:33:07.805Z,101180.47
2022-10-26T04:35:35.079Z,101179.84
2022-10-26T04:38:06.632Z,101187.84
2022-10-26T04:40:35.555Z,101183.00
2022-10-26T04:43:02.816Z,101177.22
2022-10-26T04:45:30.829Z,101185.38
2022-10-26T04:48:07.091Z,101184.88
2022-10-26T04:50:34.421Z,101184.53
2022-10-26T04:53:01.779Z,101185.47
2022-10-26T04:55:28.833Z,101190.94
2022-10-26T04:57:58.434Z,101190.22
2022-10-26T05:00:30.101Z,101190.50
2022-10-26T05:03:02.303Z,101195.41
2022-10-26T05:05:31.290Z,101194.75
2022-10-26T05:07:58.245Z,101194.38
2022-10-26T05:10:26.809Z,101182.91
2022-10-26T05:12:55.718Z,101191.38
2022-10-26T05:15:23.479Z,101189.31
2022-10-26T05:18:03.366Z,101183.28
2022-10-26T05:20:34.347Z,101192.22
2022-10-26T05:23:06.034Z,101186.66
2022-10-26T05:25:37.631Z,101185.34
2022-10-26T05:28:14.816Z,101189.72
2022-10-26T05:30:44.509Z,101185.59
2022-10-26T05:33:13.374Z,101190.94
2022-10-26T05:35:40.736Z,101190.88
2022-10-26T05:38:18.290Z,101196.91
2022-10-26T05:40:50.305Z,101197.56
2022-10-26T05:43:18.103Z,101203.53
2022-10-26T05:45:45.521Z,101200.03
2022-10-26T05:48:12.699Z,101201.09
2022-10-26T05:50:39.799Z,101204.63
2022-10-26T05:53:06.769Z,101214.16
2022-10-26T05:55:34.931Z,101208.06
2022-10-26T05:58:02.521Z,101208.06
2022-10-26T06:00:30.683Z,101204.94
2022-10-26T06:03:35.241Z,101206.44
2022-10-26T06:06:05.216Z,101203.25
2022-10-26T06:08:34.816Z,101204.84
2022-10-26T06:11:03.051Z,101214.53
2022-10-26T06:13:30.507Z,101217.91
2022-10-26T06:16:07.880Z,101215.91
2022-10-26T06:19:02.025Z,101217.59
2022-10-26T06:21:41.177Z,101219.50
2022-10-26T06:24:53.785Z,101215.59
2022-10-26T06:28:05.038Z,101217.28
2022-10-26T06:30:32.902Z,101216.28
2022-10-26T06:33:06.635Z,101222.63
2022-10-26T06:36:15.898Z,101228.88
2022-10-26T06:38:44.917Z,101236.81
2022-10-26T06:41:18.907Z,101235.81
2022-10-26T06:43:47.626Z,101236.75
2022-10-26T06:46:49.708Z,101232.38
2022-10-26T06:50:09.889Z,101243.06
2022-10-26T06:52:54.203Z,101240.66
2022-10-26T06:55:22.043Z,101243.94
2022-10-26T06:57:50.219Z,101240.19
2022-10-26T07:00:23.136Z,101234.88
2022-10-26T07:02:50.762Z,101238.44
2022-10-26T07:05:18.507Z,101233.88
2022-10-26T07:07:48.196Z,101242.78
2022-10-26T07:10:16.089Z,101237.50
2022-10-26T07:12:43.067Z,101242.47
2022-10-26T07:15:10.607Z,101241.97
2022-10-26T07:17:49.685Z,101241.22
2022-10-26T07:20:20.859Z,101242.06
2022-10-26T07:22:57.728Z,101246.19
2022-10-26T07:25:26.383Z,101239.56
2022-10-26T07:27:59.390Z,101243.56
2022-10-26T07:30:28.699Z,101245.16
2022-10-26T07:33:06.459Z,101247.44
2022-10-26T07:35:34.626Z,101249.16
2022-10-26T07:38:02.143Z,101242.59
2022-10-26T07:40:30.095Z,101237.19
2022-10-26T07:43:00.165Z,101244.75
2022-10-26T07:45:29.501Z,101241.28
2022-10-26T07:47:56.615Z,101242.59
2022-10-26T07:50:24.146Z,101247.75
2022-10-26T07:52:51.439Z,101247.94
2022-10-26T07:55:19.233Z,101240.09
2022-10-26T07:57:48.530Z,101248.13
2022-10-26T08:00:19.780Z,101244.31
2022-10-26T08:02:46.793Z,101239.06
2022-10-26T08:05:14.301Z,101241.28
2022-10-26T08:07:44.502Z,101241.47
2022-10-26T08:10:13.904Z,101239.16
2022-10-26T08:12:43.096Z,101235.75
2022-10-26T08:15:10.985Z,101243.59
2022-10-26T08:17:38.157Z,101248.66
2022-10-26T08:20:05.988Z,101262.50
2022-10-26T08:22:32.977Z,101260.41
2022-10-26T08:24:59.904Z,101253.63
2022-10-26T08:27:27.444Z,101256.63
2022-10-26T08:29:54.549Z,101254.13
2022-10-26T08:32:21.740Z,101256.00
2022-10-26T08:34:48.688Z,101249.63
2022-10-26T08:37:15.655Z,101251.50
2022-10-26T08:39:42.563Z,101243.53
2022-10-26T08:42:27.362Z,101247.22
2022-10-26T08:45:03.187Z,101244.97
2022-10-26T08:47:46.939Z,101245.03
2022-10-26T08:50:28.280Z,101237.25
2022-10-26T08:53:25.828Z,101239.69
2022-10-26T08:56:25.559Z,101240.81
2022-10-26T08:59:17.895Z,101244.63
2022-10-26T09:01:45.002Z,101243.63
2022-10-26T09:04:16.272Z,101246.66
2022-10-26T09:07:13.228Z,101257.34
2022-10-26T09:10:37.834Z,101251.44
2022-10-26T09:13:37.816Z,101249.59
2022-10-26T09:16:55.904Z,101258.81
2022-10-26T09:19:56.892Z,101257.69
2022-10-26T09:23:24.723Z,101262.47
2022-10-26T09:26:01.201Z,101263.00
2022-10-26T09:28:38.967Z,101255.31
2022-10-26T09:31:06.279Z,101261.31
2022-10-26T09:33:39.618Z,101265.38
2022-10-26T09:36:28.479Z,101269.03
2022-10-26T09:39:15.429Z,101260.91
2022-10-26T09:42:02.611Z,101260.63
2022-10-26T09:44:44.890Z,101261.22
2022-10-26T09:47:35.562Z,101262.53
2022-10-26T09:50:37.329Z,101257.34
2022-10-26T09:53:04.818Z,101267.28
2022-10-26T09:55:33.106Z,101269.00
2022-10-26T09:58:06.914Z,101268.56
2022-10-26T10:03:02.542Z,101265.66
2022-10-26T10:05:53.202Z,101273.06
2022-10-26T10:08:27.619Z,101264.59
2022-10-26T10:11:15.434Z,101278.38
2022-10-26T10:25:40.167Z,101269.22
2022-10-26T10:28:28.372Z,101268.38
2022-10-26T10:31:05.903Z,101271.78
2022-10-26T10:33:41.745Z,101274.16
2022-10-26T10:36:25.889Z,101267.38
2022-10-26T10:38:54.321Z,101259.41
2022-10-26T10:41:48.240Z,101262.75
2022-10-26T10:44:29.617Z,101259.84
2022-10-26T10:47:06.966Z,101266.75
2022-10-26T10:49:34.602Z,101261.59
2022-10-26T10:52:01.789Z,101263.03
2022-10-26T10:54:39.169Z,101259.56
2022-10-26T10:57:58.518Z,101262.78
2022-10-26T11:00:27.654Z,101267.63
2022-10-26T11:03:45.874Z,101252.75
2022-10-26T11:06:29.874Z,101253.88
2022-10-26T11:09:15.587Z,101266.47
2022-10-26T11:12:01.796Z,101262.91
2022-10-26T11:14:49.563Z,101267.47
2022-10-26T11:17:29.200Z,101272.22
2022-10-26T11:20:14.949Z,101277.78
2022-10-26T11:23:38.287Z,101273.75
2022-10-26T11:26:34.151Z,101270.06
2022-10-26T11:29:43.492Z,101265.78
2022-10-26T11:32:43.619Z,101264.88
2022-10-26T11:35:47.423Z,101264.84
2022-10-26T11:38:46.614Z,101265.09
2022-10-26T11:42:00.278Z,101250.25
2022-10-26T11:45:04.268Z,101247.97
2022-10-26T11:47:53.039Z,101244.44
2022-10-26T11:50:36.333Z,101249.31
2022-10-26T11:53:24.400Z,101250.19
2022-10-26T11:55:56.316Z,101241.59
2022-10-26T11:58:28.295Z,101242.19
2022-10-26T12:01:11.615Z,101237.63
2022-10-26T12:03:49.440Z,101233.81
2022-10-26T12:06:25.134Z,101238.09
2022-10-26T12:09:15.969Z,101230.63
2022-10-26T12:12:46.247Z,101236.34
2022-10-26T12:16:03.969Z,101223.03
2022-10-26T12:18:59.216Z,101214.59
2022-10-26T12:21:30.731Z,101221.75
2022-10-26T12:24:35.460Z,101214.84
2022-10-26T12:27:06.047Z,101211.31
2022-10-26T12:29:49.103Z,101213.25
2022-10-26T12:32:33.693Z,101219.50
2022-10-26T12:35:44.159Z,101207.13
2022-10-26T12:38:32.944Z,101203.91
2022-10-26T12:41:06.681Z,101208.41
2022-10-26T12:43:40.917Z,101207.81
2022-10-26T12:51:21.797Z,101213.59
2022-10-26T12:54:07.583Z,101207.56
2022-10-26T12:56:49.935Z,101208.56
2022-10-26T12:59:28.685Z,101215.81
2022-10-26T13:02:26.212Z,101209.75
2022-10-26T13:05:45.205Z,101218.59
2022-10-26T13:08:13.961Z,101217.53
2022-10-26T13:11:18.584Z,101209.50
2022-10-26T13:13:57.512Z,101221.91
2022-10-26T13:16:28.821Z,101219.25
2022-10-26T13:18:57.926Z,101210.00
2022-10-26T13:21:26.899Z,101215.00
2022-10-26T13:23:53.732Z,101202.19
2022-10-26T13:26:25.630Z,101208.72
2022-10-26T13:28:57.373Z,101205.19
2022-10-26T13:31:34.262Z,101204.31
2022-10-26T13:34:19.256Z,101197.47
2022-10-26T13:37:26.425Z,101203.88
2022-10-26T13:39:56.180Z,101218.53
2022-10-26T13:42:51.224Z,101218.69
2022-10-26T13:45:47.196Z,101212.75
2022-10-26T13:48:30.798Z,101215.69
2022-10-26T13:51:04.000Z,101214.44
2022-10-26T13:54:02.626Z,101216.22
2022-10-26T13:56:41.180Z,101230.25
2022-10-26T13:59:14.711Z,101234.25
2022-10-26T14:01:41.807Z,101234.78
2022-10-26T14:04:26.585Z,101232.94
2022-10-26T14:06:54.614Z,101236.69
2022-10-26T14:09:23.189Z,101234.22
2022-10-26T14:12:02.649Z,101227.47
2022-10-26T14:14:38.682Z,101234.88
2022-10-26T14:17:05.949Z,101237.22
2022-10-26T14:19:40.783Z,101232.31
2022-10-26T14:22:08.122Z,101235.94
2022-10-26T14:24:47.344Z,101231.84
2022-10-26T14:27:17.994Z,101235.34
2022-10-26T14:29:49.859Z,101238.38
2022-10-26T14:32:33.496Z,101235.03
2022-10-26T14:35:00.535Z,101235.50
2022-10-26T14:37:59.757Z,101235.84
2022-10-26T14:40:32.346Z,101235.53
2022-10-26T14:43:02.566Z,101238.44
2022-10-26T14:45:54.357Z,101243.34
2022-10-26T14:48:33.269Z,101243.50
2022-10-26T14:51:21.356Z,101254.41
2022-10-26T14:53:53.489Z,101246.63
2022-10-26T14:56:35.542Z,101244.66
2022-10-26T14:59:33.360Z,101255.06
2022-10-26T15:02:22.331Z,101259.66
2022-10-26T15:05:24.353Z,101259.13
2022-10-26T15:07:54.634Z,101257.84
2022-10-26T15:10:37.069Z,101259.28
2022-10-26T15:13:32.488Z,101256.91
2022-10-26T15:16:18.855Z,101264.13
2022-10-26T15:18:51.482Z,101249.91
2022-10-26T15:21:25.781Z,101258.47
2022-10-26T15:23:54.663Z,101256.16
2022-10-26T15:26:24.439Z,101249.97
2022-10-26T15:28:53.439Z,101256.19
2022-10-26T15:31:20.166Z,101259.38
2022-10-26T15:33:53.259Z,101260.25
2022-10-26T15:36:24.577Z,101258.41
2022-10-26T15:38:51.978Z,101257.94
2022-10-26T15:41:29.348Z,101260.03
2022-10-26T15:44:01.383Z,101252.47
2022-10-26T15:46:39.250Z,101262.16
2022-10-26T15:49:14.699Z,101261.94
2022-10-26T15:51:45.288Z,101264.41
2022-10-26T15:54:12.481Z,101268.69
2022-10-26T15:56:40.224Z,101274.94
2022-10-26T15:59:18.622Z,101276.59
2022-10-26T16:01:45.920Z,101272.41
2022-10-26T16:04:13.133Z,101281.69
2022-10-26T16:06:41.985Z,101285.03
2022-10-26T16:09:17.944Z,101278.81
2022-10-26T16:11:45.364Z,101287.16
2022-10-26T16:14:13.083Z,101300.13
2022-10-26T16:16:41.245Z,101286.19
2022-10-26T16:19:29.813Z,101293.59
2022-10-26T16:21:58.315Z,101287.78
2022-10-26T16:24:30.250Z,101292.56
2022-10-26T16:26:57.867Z,101286.94
2022-10-26T16:29:24.837Z,101295.53
2022-10-26T16:31:51.916Z,101298.28
2022-10-26T16:34:18.948Z,101301.25
2022-10-26T16:36:45.860Z,101306.88
2022-10-26T16:39:13.389Z,101303.66
2022-10-26T16:41:40.418Z,101298.88
2022-10-26T16:44:07.386Z,101299.22
2022-10-26T16:46:34.446Z,101301.28
2022-10-26T16:49:01.486Z,101306.28
2022-10-26T16:51:29.028Z,101306.41
2022-10-26T16:53:57.224Z,101308.19
2022-10-26T16:56:28.901Z,101310.00
2022-10-26T16:58:57.083Z,101316.31
2022-10-26T17:01:24.538Z,101319.81
2022-10-26T17:03:53.325Z,101319.44
2022-10-26T17:06:20.691Z,101320.97
2022-10-26T17:08:48.032Z,101325.91
2022-10-26T17:11:19.754Z,101325.88
2022-10-26T17:13:47.488Z,101336.63
2022-10-26T17:16:19.993Z,101340.31
2022-10-26T17:18:48.346Z,101335.91
2022-10-26T17:21:19.138Z,101337.94
2022-10-26T17:23:46.765Z,101339.72
2022-10-26T17:26:15.033Z,101342.59
2022-10-26T17:28:42.060Z,101350.72
2022-10-26T17:31:15.126Z,101340.81
2022-10-26T17:33:44.460Z,101350.84
2022-10-26T17:36:13.969Z,101359.09
2022-10-26T17:38:42.733Z,101359.09
2022-10-26T17:41:13.687Z,101359.81
2022-10-26T17:43:43.159Z,101361.72
2022-10-26T17:46:16.830Z,101369.81
2022-10-26T17:48:44.094Z,101366.97
2022-10-26T17:51:18.946Z,101365.53
2022-10-26T17:53:51.173Z,101361.00
2022-10-26T17:56:26.473Z,101363.25
2022-10-26T17:59:03.988Z,101369.09
2022-10-26T18:01:31.867Z,101371.47
2022-10-26T18:03:59.329Z,101370.66
2022-10-26T18:06:26.451Z,101372.94
2022-10-26T18:08:53.507Z,101372.56
2022-10-26T18:11:26.758Z,101386.31
2022-10-26T18:13:55.964Z,101385.97
2022-10-26T18:16:28.124Z,101380.59
2022-10-26T18:19:04.692Z,101380.59
2022-10-26T18:21:38.735Z,101383.94
2022-10-26T18:24:08.150Z,101392.53
2022-10-26T18:26:36.060Z,101401.16
2022-10-26T18:29:04.639Z,101398.28
2022-10-26T18:31:34.726Z,101411.56
2022-10-26T18:34:05.538Z,101410.69
2022-10-26T18:36:32.977Z,101410.19
2022-10-26T18:39:00.039Z,101419.19
2022-10-26T18:41:28.116Z,101414.97
2022-10-26T18:43:58.934Z,101421.91
2022-10-26T18:46:33.742Z,101424.22
2022-10-26T18:49:01.144Z,101425.41
2022-10-26T18:51:34.404Z,101420.72
2022-10-26T18:54:02.141Z,101421.31
2022-10-26T18:56:29.206Z,101430.75
2022-10-26T18:58:59.406Z,101432.56
2022-10-26T19:01:34.162Z,101428.63
2022-10-26T19:04:05.675Z,101428.16
2022-10-26T19:06:40.210Z,101424.44
2022-10-26T19:09:09.984Z,101426.47
2022-10-26T19:11:38.664Z,101431.94
2022-10-26T19:14:07.386Z,101438.19
2022-10-26T19:16:50.856Z,101435.69
2022-10-26T19:19:20.149Z,101434.97
2022-10-26T19:21:49.609Z,101440.13
2022-10-26T19:24:22.648Z,101440.94
2022-10-26T19:26:51.631Z,101440.34
2022-10-26T19:29:20.013Z,101444.16
2022-10-26T19:31:51.680Z,101443.44
2022-10-26T19:34:19.139Z,101449.09
2022-10-26T19:36:47.018Z,101445.13
2022-10-26T19:39:18.305Z,101450.16
2022-10-26T19:41:46.423Z,101454.19
2022-10-26T19:44:14.995Z,101454.66
2022-10-26T19:46:43.413Z,101469.59
2022-10-26T19:49:12.467Z,101465.00
2022-10-26T19:51:39.477Z,101466.28
2022-10-26T19:54:07.142Z,101461.91
2022-10-26T19:56:37.149Z,101470.16
2022-10-26T19:59:05.056Z,101475.06
2022-10-26T20:01:32.701Z,101470.25
2022-10-26T20:04:02.250Z,101475.75
2022-10-26T20:06:30.614Z,101484.03
2022-10-26T20:08:57.608Z,101486.25
2022-10-26T20:11:24.533Z,101487.06
2022-10-26T20:13:51.527Z,101488.78
2022-10-26T20:16:18.562Z,101486.25
2022-10-26T20:18:47.784Z,101489.50
2022-10-26T20:21:17.223Z,101498.78
2022-10-26T20:23:45.247Z,101502.16
2022-10-26T20:26:19.288Z,101504.69
2022-10-26T20:28:51.175Z,101503.28
2022-10-26T20:31:18.444Z,101500.88
2022-10-26T20:33:45.483Z,101491.03
2022-10-26T20:36:12.393Z,101492.28
2022-10-26T20:38:40.319Z,101497.47
2022-10-26T20:41:14.530Z,101492.63
2022-10-26T20:43:42.556Z,101498.56
2022-10-26T20:46:28.162Z,101503.78
2022-10-26T20:48:55.623Z,101504.63
2022-10-26T20:52:19.467Z,101513.53
2022-10-26T20:55:37.341Z,101512.41
2022-10-26T20:58:20.374Z,101518.28
2022-10-26T21:00:59.698Z,101518.69
2022-10-26T21:03:26.885Z,101521.84
2022-10-26T21:05:55.479Z,101525.22
2022-10-26T21:08:22.568Z,101524.03
2022-10-26T21:10:53.236Z,101526.88
2022-10-26T21:13:20.204Z,101537.56
2022-10-26T21:15:47.221Z,101530.22
2022-10-26T21:18:14.173Z,101533.28
2022-10-26T21:20:41.088Z,101535.69
2022-10-26T21:23:08.036Z,101536.94
2022-10-26T21:25:37.030Z,101545.63
2022-10-26T21:28:06.809Z,101542.75
2022-10-26T21:30:34.038Z,101550.66
2022-10-26T21:33:01.111Z,101556.09
2022-10-26T21:35:28.230Z,101550.13
2022-10-26T21:37:55.988Z,101546.56
2022-10-26T21:40:23.314Z,101557.59
2022-10-26T21:42:51.813Z,101553.66
2022-10-26T21:45:19.542Z,101565.50
2022-10-26T21:47:52.677Z,101564.38
2022-10-26T21:50:19.908Z,101562.06
2022-10-26T21:52:46.833Z,101563.56
2022-10-26T21:55:13.905Z,101562.41
2022-10-26T21:57:40.827Z,101566.97
2022-10-26T22:00:09.613Z,101570.63
2022-10-26T22:02:36.538Z,101572.97
2022-10-26T22:05:03.660Z,101571.13
2022-10-26T22:07:30.584Z,101580.56
2022-10-26T22:10:10.242Z,101575.41
2022-10-26T22:12:37.781Z,101571.97
2022-10-26T22:15:05.699Z,101574.28
2022-10-26T22:17:36.058Z,101569.25
2022-10-26T22:20:03.178Z,101568.03
2022-10-26T22:22:30.132Z,101568.81
2022-10-26T22:24:57.108Z,101570.75
2022-10-26T22:27:24.081Z,101565.47
2022-10-26T22:29:51.045Z,101564.75
2022-10-26T22:32:17.964Z,101567.16
2022-10-26T22:34:44.904Z,101559.44
2022-10-26T22:37:11.898Z,101571.75
2022-10-26T22:39:38.908Z,101579.47
2022-10-26T22:42:05.946Z,101585.00
2022-10-26T22:44:32.850Z,101579.13
2022-10-26T22:46:59.866Z,101571.38
2022-10-26T22:49:26.792Z,101577.44
2022-10-26T22:51:53.690Z,101575.31
2022-10-26T22:54:20.615Z,101583.25
2022-10-26T22:56:47.557Z,101582.41
2022-10-26T22:59:14.459Z,101581.91
2022-10-26T23:01:41.842Z,101578.75
2022-10-26T23:04:14.435Z,101582.22
2022-10-26T23:06:41.699Z,101583.16
2022-10-26T23:09:08.709Z,101591.63
2022-10-26T23:11:35.668Z,101582.94
2022-10-26T23:14:03.801Z,101590.16
2022-10-26T23:16:31.606Z,101592.50
2022-10-26T23:18:59.518Z,101590.13
2022-10-26T23:21:28.209Z,101599.28
2022-10-26T23:23:56.326Z,101601.91
2022-10-26T23:26:23.496Z,101604.81
2022-10-26T23:28:50.962Z,101612.94
2022-10-26T23:31:28.145Z,101615.72
2022-10-26T23:33:57.438Z,101612.78
2022-10-26T23:36:25.216Z,101615.00
2022-10-26T23:38:52.270Z,101612.56
2022-10-26T23:41:19.178Z,101617.59
2022-10-26T23:43:46.183Z,101624.16
2022-10-26T23:46:13.281Z,101628.34
2022-10-26T23:48:40.344Z,101622.66
2022-10-26T23:51:07.284Z,101622.75
2022-10-26T23:53:34.821Z,101618.34
2022-10-26T23:56:02.399Z,101621.78
2022-10-26T23:58:29.361Z,101619.28
